createdAt,value
2023-05-16T00:03:39.363Z,3.77
2023-05-16T00:09:41.563Z,3.17
2023-05-16T00:15:44.414Z,3.23
2023-05-16T00:21:46.817Z,3.83
2023-05-16T00:27:49.072Z,4.13
2023-05-16T00:33:51.533Z,4.50
2023-05-16T00:39:53.722Z,3.53
2023-05-16T00:45:58.326Z,3.53
2023-05-16T00:52:01.108Z,3.72
2023-05-16T00:58:03.318Z,4.22
2023-05-16T01:04:06.556Z,4.35
2023-05-16T01:10:10.454Z,4.18
2023-05-16T01:16:40.601Z,4.38
2023-05-16T01:22:46.448Z,4.20
2023-05-16T01:28:53.577Z,4.63
2023-05-16T01:34:55.844Z,4.10
2023-05-16T01:40:57.955Z,4.30
2023-05-16T01:47:04.186Z,4.60
2023-05-16T01:53:11.648Z,3.78
2023-05-16T01:59:14.665Z,4.40
2023-05-16T02:05:16.904Z,4.10
2023-05-16T02:11:18.972Z,4.18
2023-05-16T02:17:21.536Z,4.37
2023-05-16T02:23:23.666Z,4.45
2023-05-16T02:29:25.813Z,4.90
2023-05-16T02:35:28.340Z,4.70
2023-05-16T02:47:33.073Z,5.30
2023-05-16T02:53:35.295Z,4.68
2023-05-16T02:59:37.490Z,5.43
2023-05-16T03:05:40.040Z,5.15
2023-05-16T03:11:42.216Z,4.65
2023-05-16T03:17:44.418Z,5.23
2023-05-16T03:23:46.605Z,5.53
2023-05-16T03:29:48.921Z,5.13
2023-05-16T03:35:51.425Z,5.22
2023-05-16T03:41:56.476Z,5.10
2023-05-16T03:47:59.106Z,5.30
2023-05-16T03:54:01.400Z,5.30
2023-05-16T04:00:08.444Z,5.22
2023-05-16T04:06:13.924Z,4.95
2023-05-16T04:18:20.291Z,5.57
2023-05-16T04:24:26.707Z,6.82
2023-05-16T04:30:29.007Z,5.68
2023-05-16T04:36:32.000Z,5.28
2023-05-16T04:42:34.847Z,6.18
2023-05-16T04:48:37.442Z,6.40
2023-05-16T04:54:40.099Z,5.60
2023-05-16T05:06:44.589Z,5.95
2023-05-16T05:12:46.586Z,4.78
2023-05-16T05:18:49.096Z,5.43
2023-05-16T05:24:52.099Z,5.25
2023-05-16T05:30:54.265Z,6.18
2023-05-16T05:36:56.922Z,5.35
2023-05-16T05:49:01.510Z,5.18
2023-05-16T06:01:06.374Z,5.95
2023-05-16T06:13:10.928Z,5.00
2023-05-16T06:19:16.494Z,4.35
2023-05-16T06:25:18.744Z,4.75
2023-05-16T06:31:21.143Z,4.38
2023-05-16T06:37:23.896Z,4.28
2023-05-16T06:43:26.948Z,4.05
2023-05-16T06:49:29.545Z,4.60
2023-05-16T06:55:31.797Z,4.03
2023-05-16T07:01:34.483Z,3.78
2023-05-16T07:07:40.570Z,4.25
2023-05-16T07:13:42.736Z,4.15
2023-05-16T07:19:44.928Z,4.63
2023-05-16T07:25:47.412Z,3.85
2023-05-16T07:31:49.683Z,3.30
2023-05-16T07:37:51.974Z,3.28
2023-05-16T07:43:54.170Z,3.33
2023-05-16T07:49:56.895Z,4.38
2023-05-16T07:55:59.798Z,3.58
2023-05-16T08:02:02.677Z,3.60
2023-05-16T08:08:04.993Z,3.30
2023-05-16T08:14:07.443Z,2.92
2023-05-16T08:20:09.972Z,3.35
2023-05-16T08:26:12.978Z,2.83
2023-05-16T08:32:15.347Z,3.13
2023-05-16T08:38:17.450Z,4.03
2023-05-16T08:44:22.294Z,3.58
2023-05-16T08:50:25.786Z,4.13
2023-05-16T08:56:31.688Z,4.15
2023-05-16T09:02:34.076Z,3.80
2023-05-16T09:08:36.434Z,2.45
2023-05-16T09:14:38.754Z,3.53
2023-05-16T09:20:47.338Z,3.58
2023-05-16T09:26:49.465Z,2.72
2023-05-16T09:32:54.701Z,3.15
2023-05-16T09:38:57.281Z,2.95
2023-05-16T09:45:02.900Z,2.88
2023-05-16T09:51:06.706Z,2.90
2023-05-16T09:57:09.661Z,3.75
2023-05-16T10:03:12.787Z,3.00
2023-05-16T10:09:16.869Z,3.67
2023-05-16T10:15:21.021Z,2.95
2023-05-16T10:21:25.965Z,2.83
2023-05-16T10:27:28.446Z,2.67
2023-05-16T10:33:31.463Z,2.80
2023-05-16T10:39:34.213Z,4.05
2023-05-16T10:45:42.224Z,3.20
2023-05-16T10:51:44.338Z,2.97
2023-05-16T10:57:47.715Z,2.83
2023-05-16T11:04:05.066Z,2.90
2023-05-16T11:10:17.988Z,3.13
2023-05-16T11:16:30.335Z,2.40
2023-05-16T11:22:41.814Z,2.78
2023-05-16T11:28:44.221Z,2.92
2023-05-16T11:34:48.544Z,3.20
2023-05-16T11:40:50.905Z,2.85
2023-05-16T11:46:53.277Z,2.72
2023-05-16T11:52:57.914Z,3.72
2023-05-16T11:59:01.122Z,3.80
2023-05-16T12:05:10.443Z,2.80
2023-05-16T12:11:13.115Z,2.80
2023-05-16T12:17:15.520Z,2.85
2023-05-16T12:23:17.839Z,2.53
2023-05-16T12:29:22.169Z,2.92
2023-05-16T12:35:31.463Z,3.10
2023-05-16T12:41:33.784Z,3.03
2023-05-16T12:47:37.962Z,3.65
2023-05-16T12:53:54.451Z,2.97
2023-05-16T13:00:08.421Z,3.50
2023-05-16T13:06:10.811Z,3.30
2023-05-16T13:12:14.613Z,2.88
2023-05-16T13:18:17.034Z,3.70
2023-05-16T13:24:19.194Z,3.55
2023-05-16T13:30:21.448Z,2.97
2023-05-16T13:36:23.823Z,2.88
2023-05-16T13:42:26.348Z,3.20
2023-05-16T13:48:28.687Z,3.33
2023-05-16T13:54:31.303Z,3.20
2023-05-16T14:00:45.649Z,3.47
2023-05-16T14:06:53.152Z,3.42
2023-05-16T14:12:56.184Z,3.72
2023-05-16T14:18:58.486Z,3.25
2023-05-16T14:25:00.817Z,2.25
2023-05-16T14:31:03.186Z,3.55
2023-05-16T14:37:05.586Z,3.25
2023-05-16T14:43:07.920Z,2.85
2023-05-16T14:49:10.386Z,3.25
2023-05-16T14:55:13.154Z,3.15
2023-05-16T15:01:16.960Z,3.00
2023-05-16T15:07:19.105Z,2.80
2023-05-16T15:13:21.419Z,3.30
2023-05-16T15:19:23.631Z,2.65
2023-05-16T15:25:26.215Z,3.40
2023-05-16T15:31:28.638Z,2.92
2023-05-16T15:37:31.367Z,2.83
2023-05-16T15:43:33.437Z,2.72
2023-05-16T15:49:35.776Z,2.97
2023-05-16T15:55:38.453Z,3.33
2023-05-16T16:01:41.183Z,3.13
2023-05-16T16:07:43.589Z,3.30
2023-05-16T16:13:45.844Z,3.13
2023-05-16T16:19:48.092Z,7.82
2023-05-16T16:25:50.582Z,2.97
2023-05-16T16:31:53.521Z,2.65
2023-05-16T16:38:06.268Z,2.80
2023-05-16T16:44:09.216Z,3.25
2023-05-16T16:50:11.803Z,3.35
2023-05-16T16:56:14.503Z,4.05
2023-05-16T17:02:16.798Z,2.80
2023-05-16T17:08:19.308Z,3.05
2023-05-16T17:14:21.905Z,3.35
2023-05-16T17:20:24.610Z,4.10
2023-05-16T17:26:29.400Z,3.67
2023-05-16T17:32:31.964Z,4.70
2023-05-16T17:38:34.959Z,4.13
2023-05-16T17:44:37.371Z,4.28
2023-05-16T17:56:43.068Z,6.30
2023-05-16T18:02:45.211Z,6.47
2023-05-16T18:08:48.073Z,6.20
2023-05-16T18:14:50.790Z,5.20
2023-05-16T18:20:53.035Z,5.13
2023-05-16T18:26:55.386Z,4.55
2023-05-16T18:39:00.439Z,5.20
2023-05-16T18:45:03.782Z,6.53
2023-05-16T18:51:06.020Z,5.25
2023-05-16T18:57:09.007Z,5.68
2023-05-16T19:03:13.561Z,5.40
2023-05-16T19:09:16.297Z,6.57
2023-05-16T19:15:19.054Z,5.50
2023-05-16T19:21:21.410Z,5.20
2023-05-16T19:27:23.623Z,4.60
2023-05-16T19:33:25.838Z,5.05
2023-05-16T19:39:28.219Z,5.47
2023-05-16T19:45:30.816Z,6.07
2023-05-16T19:51:41.227Z,5.07
2023-05-16T19:57:44.016Z,6.28
2023-05-16T20:03:46.892Z,5.85
2023-05-16T20:09:49.424Z,4.88
2023-05-16T20:15:51.743Z,5.35
2023-05-16T20:21:53.842Z,5.63
2023-05-16T20:27:55.985Z,5.22
2023-05-16T20:33:58.716Z,5.40
2023-05-16T20:46:03.355Z,5.25
2023-05-16T20:52:06.721Z,5.78
2023-05-16T20:58:09.165Z,6.05
2023-05-16T21:04:11.514Z,6.30
2023-05-16T21:10:14.136Z,5.95
2023-05-16T21:16:16.332Z,5.68
2023-05-16T21:22:18.685Z,5.80
2023-05-16T21:28:21.060Z,5.32
2023-05-16T21:34:23.205Z,5.80
2023-05-16T21:40:26.103Z,5.75
2023-05-16T21:46:28.296Z,5.45
2023-05-16T21:52:31.008Z,5.10
2023-05-16T22:04:35.729Z,6.00
2023-05-16T22:16:40.641Z,6.35
2023-05-16T22:22:44.989Z,6.40
2023-05-16T22:28:47.236Z,6.40
2023-05-16T22:34:49.662Z,5.75
2023-05-16T22:40:52.115Z,6.10
2023-05-16T22:46:54.339Z,5.50
2023-05-16T22:52:56.577Z,6.72
2023-05-16T22:58:59.003Z,5.95
2023-05-16T23:05:01.418Z,5.97
2023-05-16T23:17:06.425Z,5.53
2023-05-16T23:23:08.773Z,5.63
2023-05-16T23:35:13.919Z,6.93
2023-05-16T23:41:16.143Z,5.82
2023-05-16T23:47:18.274Z,6.43
2023-05-16T23:53:21.412Z,5.97
2023-05-16T23:59:23.814Z,6.43
